Time;durP1;ratioP1;P1;durP2;ratioP2;P2;SDS_P1;SDS_P2;PMS_P1;PMS_P2;Temp;Humidity;BMP_temperature;BMP_pressure;BME280_temperature;BME280_humidity;BME280_pressure;Samples;Min_cycle;Max_cycle;Signal;HPM_P1;HPM_P2
2021/08/25 00:01:18;;;;;;;8.32;6.65;;;21.20;76.60;;;;;;5071487;28;20205;-74
2021/08/25 00:03:44;;;;;;;7.38;6.68;;;21.10;76.10;;;;;;5058003;28;20183;-74
2021/08/25 00:06:11;;;;;;;7.50;6.63;;;21.10;76.80;;;;;;5067892;28;20187;-74
2021/08/25 00:08:36;;;;;;;6.55;5.93;;;21.10;76.70;;;;;;5069652;28;20195;-74
2021/08/25 00:11:03;;;;;;;9.57;6.32;;;21.10;77.00;;;;;;5072361;28;20188;-74
2021/08/25 00:13:29;;;;;;;7.50;5.72;;;21.10;76.80;;;;;;5064892;28;20198;-75
2021/08/25 00:15:55;;;;;;;6.60;6.03;;;21.00;76.70;;;;;;5075388;28;20183;-75
2021/08/25 00:18:21;;;;;;;8.98;6.35;;;21.00;77.10;;;;;;5072847;28;20178;-75
2021/08/25 00:20:47;;;;;;;11.55;6.20;;;21.00;77.20;;;;;;5072826;28;20286;-75
2021/08/25 00:23:12;;;;;;;9.93;7.15;;;21.00;77.80;;;;;;5063271;28;20186;-74
2021/08/25 00:25:38;;;;;;;9.05;6.53;;;21.00;79.00;;;;;;5062444;28;20959;-75
2021/08/25 00:28:04;;;;;;;10.13;6.95;;;21.00;78.70;;;;;;5066602;28;20179;-74
2021/08/25 00:30:30;;;;;;;10.77;7.25;;;20.90;80.50;;;;;;5063883;28;22237;-74
2021/08/25 00:32:56;;;;;;;7.35;6.57;;;20.90;79.80;;;;;;5069048;28;20178;-75
2021/08/25 00:35:22;;;;;;;6.43;5.82;;;20.90;80.30;;;;;;5072496;28;20224;-74
2021/08/25 00:37:47;;;;;;;7.47;6.53;;;20.90;78.80;;;;;;5062062;28;20619;-74
2021/08/25 00:40:14;;;;;;;8.02;6.68;;;20.90;79.10;;;;;;5069232;28;20560;-74
2021/08/25 00:42:40;;;;;;;7.38;5.88;;;20.90;78.50;;;;;;5061348;28;20187;-75
2021/08/25 00:45:08;;;;;;;11.85;6.55;;;20.90;78.10;;;;;;5069733;28;20577;-74
2021/08/25 00:47:38;;;;;;;10.52;6.47;;;21.00;78.20;;;;;;5072686;28;20183;-74
2021/08/25 00:50:05;;;;;;;7.10;5.63;;;21.00;78.00;;;;;;5073237;28;20578;-74
2021/08/25 00:52:31;;;;;;;13.18;7.25;;;21.00;79.60;;;;;;5073109;28;20207;-74
2021/08/25 00:55:01;;;;;;;8.10;7.15;;;20.90;80.50;;;;;;5066680;28;20214;-74
2021/08/25 00:57:27;;;;;;;9.20;7.15;;;20.90;79.40;;;;;;5068402;28;20190;-74
2021/08/25 00:59:53;;;;;;;8.60;6.35;;;20.90;79.80;;;;;;5076713;28;20189;-74
2021/08/25 01:02:44;;;;;;;6.15;5.55;;;20.90;79.60;;;;;;5061778;28;20218;-74
2021/08/25 01:05:11;;;;;;;7.85;6.53;;;20.90;80.80;;;;;;5073619;28;20182;-74
2021/08/25 01:07:38;;;;;;;9.82;6.60;;;20.90;80.00;;;;;;5068954;28;20195;-74
2021/08/25 01:10:27;;;;;;;7.82;6.00;;;20.90;79.20;;;;;;5067088;28;20186;-74
2021/08/25 01:13:04;;;;;;;7.78;6.28;;;20.90;79.60;;;;;;5065256;28;20219;-74
2021/08/25 01:15:31;;;;;;;7.03;6.35;;;20.90;79.90;;;;;;5066478;28;20262;-74
2021/08/25 01:17:59;;;;;;;8.85;6.70;;;20.80;79.40;;;;;;5076869;28;20182;-74
2021/08/25 01:20:26;;;;;;;9.77;6.80;;;20.80;78.90;;;;;;5069529;28;20202;-74
2021/08/25 01:22:53;;;;;;;10.75;6.07;;;20.80;78.90;;;;;;5069625;28;20183;-73
2021/08/25 01:25:20;;;;;;;8.20;6.65;;;20.80;79.30;;;;;;5073084;28;20186;-73
2021/08/25 01:27:55;;;;;;;9.25;5.80;;;20.80;79.10;;;;;;5073246;28;20607;-73
2021/08/25 01:30:25;;;;;;;9.05;6.82;;;20.80;78.80;;;;;;5086067;28;20253;-73
2021/08/25 01:32:51;;;;;;;7.72;6.55;;;20.80;78.70;;;;;;5067518;28;20191;-73
2021/08/25 01:35:17;;;;;;;9.18;6.05;;;20.80;79.20;;;;;;5066049;28;20178;-73
2021/08/25 01:37:44;;;;;;;7.70;6.22;;;20.80;79.10;;;;;;5072747;28;20238;-74
2021/08/25 01:40:10;;;;;;;7.55;6.35;;;20.80;78.80;;;;;;5070338;28;20744;-73
2021/08/25 01:42:36;;;;;;;9.02;6.18;;;20.90;79.60;;;;;;5073171;28;20237;-74
2021/08/25 01:45:03;;;;;;;10.32;6.47;;;20.90;79.00;;;;;;5065804;28;20183;-73
2021/08/25 01:47:29;;;;;;;8.07;6.57;;;20.90;79.00;;;;;;5070013;28;20251;-73
2021/08/25 01:49:55;;;;;;;7.90;6.43;;;20.90;79.10;;;;;;5074327;28;20175;-73
2021/08/25 01:52:21;;;;;;;8.13;6.63;;;20.90;79.30;;;;;;5076719;28;20183;-73
2021/08/25 01:54:52;;;;;;;7.10;6.18;;;20.90;79.00;;;;;;5074950;28;20175;-73
2021/08/25 01:57:18;;;;;;;8.82;5.80;;;20.90;79.00;;;;;;5076335;28;20570;-73
2021/08/25 01:59:45;;;;;;;9.02;5.97;;;20.90;79.60;;;;;;5070032;28;20194;-73
2021/08/25 02:02:11;;;;;;;7.30;6.43;;;20.90;79.00;;;;;;5071629;28;20199;-73
2021/08/25 02:04:37;;;;;;;7.35;5.47;;;20.90;79.80;;;;;;5061017;28;20193;-73
2021/08/25 02:07:04;;;;;;;12.00;5.95;;;20.90;79.60;;;;;;5060241;28;20191;-73
2021/08/25 02:09:30;;;;;;;8.90;6.55;;;20.90;79.30;;;;;;5068479;28;20192;-74
2021/08/25 02:11:56;;;;;;;10.65;6.38;;;20.90;79.70;;;;;;5075226;28;20243;-73
2021/08/25 02:14:22;;;;;;;7.07;6.20;;;20.90;79.70;;;;;;5065313;28;20271;-73
2021/08/25 02:16:47;;;;;;;7.78;6.20;;;20.80;79.30;;;;;;5058958;28;21651;-73
2021/08/25 02:19:13;;;;;;;7.10;6.25;;;20.90;79.50;;;;;;5072329;28;20715;-73
2021/08/25 02:21:39;;;;;;;7.57;6.30;;;20.80;79.90;;;;;;5067136;28;20218;-73
2021/08/25 02:24:05;;;;;;;7.35;6.10;;;20.80;79.50;;;;;;5060751;28;20270;-74
2021/08/25 02:26:30;;;;;;;7.28;6.15;;;20.90;79.20;;;;;;5067874;28;20714;-75
2021/08/25 02:28:56;;;;;;;16.40;6.82;;;20.90;79.40;;;;;;5068747;28;20198;-74
2021/08/25 02:31:23;;;;;;;7.20;6.47;;;20.90;79.50;;;;;;5066811;28;20198;-74
2021/08/25 02:33:49;;;;;;;8.20;6.28;;;20.90;79.20;;;;;;5062193;28;20680;-74
2021/08/25 02:36:18;;;;;;;7.63;5.78;;;20.90;79.00;;;;;;5071030;28;20648;-73
2021/08/25 02:38:44;;;;;;;7.18;6.47;;;21.00;79.10;;;;;;5070168;28;20174;-73
2021/08/25 02:41:13;;;;;;;7.18;6.00;;;21.00;79.50;;;;;;5067773;28;20947;-73
2021/08/25 02:43:39;;;;;;;8.43;6.32;;;21.00;79.40;;;;;;5059314;28;20646;-74
2021/08/25 02:46:05;;;;;;;8.50;6.28;;;21.00;79.10;;;;;;5063631;28;20195;-73
2021/08/25 02:48:31;;;;;;;11.10;6.65;;;21.00;78.80;;;;;;5063586;28;20290;-73
2021/08/25 02:50:57;;;;;;;7.90;7.10;;;21.00;79.00;;;;;;5061378;28;20650;-73
2021/08/25 02:53:22;;;;;;;7.53;6.43;;;21.00;79.20;;;;;;5064525;28;20172;-73
2021/08/25 02:55:48;;;;;;;10.10;7.03;;;21.00;79.30;;;;;;5071719;28;20971;-74
2021/08/25 02:58:14;;;;;;;8.88;7.85;;;21.00;79.20;;;;;;5071460;28;20182;-73
2021/08/25 03:00:41;;;;;;;8.93;7.25;;;21.00;80.30;;;;;;5071484;28;20209;-73
2021/08/25 03:03:07;;;;;;;9.40;7.05;;;21.00;79.80;;;;;;5060208;28;20178;-73
2021/08/25 03:05:33;;;;;;;10.95;7.82;;;20.90;80.10;;;;;;5061622;28;20189;-74
2021/08/25 03:07:58;;;;;;;9.52;7.93;;;20.90;80.10;;;;;;5066381;28;20182;-74
2021/08/25 03:10:24;;;;;;;10.05;7.53;;;20.90;80.90;;;;;;5063939;28;20186;-74
2021/08/25 03:12:50;;;;;;;8.32;7.07;;;20.80;81.80;;;;;;5065695;28;20255;-75
2021/08/25 03:15:16;;;;;;;9.80;7.93;;;20.70;82.70;;;;;;5063496;28;20206;-74
2021/08/25 03:17:42;;;;;;;11.07;6.95;;;20.70;82.80;;;;;;5063862;28;20178;-76
2021/08/25 03:20:10;;;;;;;8.02;6.90;;;20.60;82.00;;;;;;5072378;28;20194;-74
2021/08/25 03:22:37;;;;;;;10.50;6.38;;;20.60;81.90;;;;;;5060352;28;20187;-76
2021/08/25 03:25:05;;;;;;;11.25;7.80;;;20.60;82.30;;;;;;5062757;28;20266;-75
2021/08/25 03:27:31;;;;;;;9.10;7.45;;;20.50;83.00;;;;;;5064293;28;20223;-75
2021/08/25 03:29:56;;;;;;;7.43;6.15;;;20.50;83.50;;;;;;5067187;28;20186;-75
2021/08/25 03:32:22;;;;;;;12.27;7.93;;;20.50;83.20;;;;;;5064891;28;20191;-75
2021/08/25 03:34:48;;;;;;;8.02;6.53;;;20.40;83.10;;;;;;5078049;28;20278;-75
2021/08/25 03:37:14;;;;;;;7.70;6.72;;;20.40;83.20;;;;;;5066303;28;20179;-75
2021/08/25 03:39:39;;;;;;;9.65;7.07;;;20.40;83.70;;;;;;5059272;28;20656;-75
2021/08/25 03:42:08;;;;;;;8.88;7.07;;;20.30;83.60;;;;;;5063236;28;20210;-74
2021/08/25 03:44:34;;;;;;;7.57;6.68;;;20.30;83.10;;;;;;5060471;28;20171;-74
2021/08/25 03:47:00;;;;;;;10.23;7.88;;;20.30;83.40;;;;;;5064660;28;20680;-74
2021/08/25 03:49:26;;;;;;;8.77;6.68;;;20.20;83.20;;;;;;5070083;28;20186;-75
2021/08/25 03:51:51;;;;;;;7.75;6.68;;;20.10;83.30;;;;;;5068876;28;20186;-74
2021/08/25 03:54:17;;;;;;;7.97;6.68;;;20.10;84.80;;;;;;5065286;28;20191;-74
2021/08/25 03:56:43;;;;;;;8.60;6.55;;;20.10;84.20;;;;;;5072533;28;20187;-74
2021/08/25 03:59:08;;;;;;;7.55;6.70;;;20.10;84.10;;;;;;5065365;28;20183;-74
2021/08/25 04:01:34;;;;;;;7.85;6.82;;;20.00;84.40;;;;;;5068253;28;20248;-74
2021/08/25 04:04:05;;;;;;;8.68;6.18;;;20.00;84.30;;;;;;5068697;28;20191;-74
2021/08/25 04:06:31;;;;;;;11.82;6.47;;;19.90;83.90;;;;;;5066083;28;20178;-74
2021/08/25 04:08:57;;;;;;;10.23;6.88;;;19.90;84.00;;;;;;5068337;28;20211;-75
2021/08/25 04:11:24;;;;;;;7.95;6.35;;;19.80;84.70;;;;;;5067767;28;20229;-74
2021/08/25 04:13:50;;;;;;;7.05;6.38;;;19.80;84.20;;;;;;5075298;28;20214;-75
2021/08/25 04:16:16;;;;;;;8.85;6.35;;;19.70;84.60;;;;;;5069432;28;20207;-75
2021/08/25 04:18:41;;;;;;;8.65;7.60;;;19.50;87.20;;;;;;5074244;28;20174;-75
2021/08/25 04:21:07;;;;;;;10.23;7.15;;;19.50;86.00;;;;;;5070946;28;20237;-75
2021/08/25 04:23:33;;;;;;;10.93;6.63;;;19.50;85.70;;;;;;5071920;28;20200;-73
2021/08/25 04:25:59;;;;;;;9.30;6.60;;;19.40;85.70;;;;;;5078417;28;20213;-74
2021/08/25 04:28:24;;;;;;;9.98;7.22;;;19.40;86.80;;;;;;5075314;28;20239;-74
2021/08/25 04:30:51;;;;;;;9.05;7.25;;;19.40;86.40;;;;;;5078297;28;20193;-75
2021/08/25 04:33:17;;;;;;;8.70;6.32;;;19.40;86.40;;;;;;5074050;28;20199;-74
2021/08/25 04:35:43;;;;;;;6.43;5.82;;;19.40;86.30;;;;;;5075185;28;20198;-74
2021/08/25 04:38:08;;;;;;;6.97;6.07;;;19.40;86.40;;;;;;5065845;28;20186;-74
2021/08/25 04:40:34;;;;;;;9.75;5.88;;;19.40;85.90;;;;;;5075526;28;20209;-73
2021/08/25 04:43:00;;;;;;;7.50;6.15;;;19.30;85.20;;;;;;5072672;28;20634;-74
2021/08/25 04:45:27;;;;;;;8.00;5.93;;;19.30;85.00;;;;;;5071699;28;20186;-71
2021/08/25 04:47:52;;;;;;;12.55;5.10;;;19.30;84.70;;;;;;5077789;28;20213;-71
2021/08/25 04:50:18;;;;;;;6.07;5.55;;;19.40;85.00;;;;;;5073951;28;20664;-72
2021/08/25 04:52:44;;;;;;;6.50;5.65;;;19.30;84.30;;;;;;5070205;28;20182;-72
2021/08/25 04:55:10;;;;;;;7.40;5.15;;;19.30;84.50;;;;;;5067377;28;20272;-72
2021/08/25 04:57:35;;;;;;;13.05;5.60;;;19.20;83.90;;;;;;5070593;28;20675;-72
2021/08/25 05:00:02;;;;;;;7.75;5.18;;;19.20;83.50;;;;;;5071456;28;20186;-72
2021/08/25 05:02:28;;;;;;;6.22;5.40;;;19.20;83.50;;;;;;5059409;28;20211;-72
2021/08/25 05:04:53;;;;;;;7.70;5.82;;;19.20;83.60;;;;;;5062223;28;20272;-72
2021/08/25 05:07:19;;;;;;;8.27;5.70;;;19.10;84.10;;;;;;5069782;28;20178;-72
2021/08/25 05:09:45;;;;;;;5.72;5.13;;;19.20;83.50;;;;;;5069551;28;20183;-72
2021/08/25 05:12:11;;;;;;;6.22;5.50;;;19.20;83.70;;;;;;5072029;28;20269;-72
2021/08/25 05:14:36;;;;;;;6.28;4.85;;;19.20;83.60;;;;;;5066391;28;20198;-72
2021/08/25 05:17:02;;;;;;;7.38;4.88;;;19.20;83.50;;;;;;5067136;28;20185;-72
2021/08/25 05:19:28;;;;;;;5.72;5.03;;;19.30;83.40;;;;;;5067711;28;20783;-72
2021/08/25 05:21:54;;;;;;;6.10;5.60;;;19.30;83.10;;;;;;5065318;28;20234;-73
2021/08/25 05:24:20;;;;;;;5.63;4.97;;;19.40;83.20;;;;;;5066925;28;20261;-75
2021/08/25 05:26:47;;;;;;;5.45;4.95;;;19.40;83.10;;;;;;5075728;28;20193;-74
2021/08/25 05:29:12;;;;;;;6.28;5.68;;;19.50;82.70;;;;;;5074545;28;20182;-74
2021/08/25 05:31:38;;;;;;;10.35;6.95;;;19.60;82.30;;;;;;5069151;28;20880;-75
2021/08/25 05:34:04;;;;;;;5.57;5.15;;;19.60;82.10;;;;;;5070543;28;20580;-73
2021/08/25 05:36:30;;;;;;;5.70;5.15;;;19.70;82.10;;;;;;5073718;28;20598;-72
2021/08/25 05:38:56;;;;;;;7.15;5.75;;;19.70;82.60;;;;;;5076394;28;20182;-73
2021/08/25 05:41:21;;;;;;;8.45;5.38;;;19.70;82.20;;;;;;5070718;28;20221;-73
2021/08/25 05:43:47;;;;;;;9.95;5.50;;;19.70;82.00;;;;;;5068165;28;20256;-73
2021/08/25 05:46:13;;;;;;;7.82;5.47;;;19.80;81.90;;;;;;5072274;28;20175;-74
2021/08/25 05:48:39;;;;;;;6.22;5.07;;;19.90;82.00;;;;;;5071141;28;20186;-78
2021/08/25 05:51:04;;;;;;;5.60;5.20;;;19.90;81.70;;;;;;5066515;28;20187;-77
2021/08/25 05:53:30;;;;;;;6.65;5.63;;;20.00;81.60;;;;;;5068785;28;20186;-77
2021/08/25 05:55:56;;;;;;;6.25;5.65;;;20.10;81.60;;;;;;5074040;28;20661;-76
2021/08/25 05:58:22;;;;;;;8.82;5.88;;;20.20;81.40;;;;;;5067735;28;20193;-76
2021/08/25 06:00:48;;;;;;;5.78;5.28;;;20.20;81.30;;;;;;5063703;28;20215;-75
2021/08/25 06:03:13;;;;;;;8.40;5.38;;;20.30;81.10;;;;;;5068217;28;20737;-76
2021/08/25 06:05:39;;;;;;;7.47;5.00;;;20.50;80.60;;;;;;5074607;28;20691;-75
2021/08/25 06:08:05;;;;;;;9.80;5.65;;;20.60;80.50;;;;;;5071759;28;20212;-74
2021/08/25 06:10:31;;;;;;;6.15;5.63;;;20.60;80.10;;;;;;5073106;28;20594;-76
2021/08/25 06:12:57;;;;;;;6.80;5.57;;;20.70;79.90;;;;;;5071681;28;20198;-76
2021/08/25 06:15:23;;;;;;;6.65;5.97;;;20.80;79.90;;;;;;5081864;28;20583;-76
2021/08/25 06:17:48;;;;;;;7.03;5.70;;;20.90;80.10;;;;;;5074393;28;20184;-74
2021/08/25 06:20:15;;;;;;;7.60;6.07;;;21.00;79.70;;;;;;5072121;28;20264;-72
2021/08/25 06:22:41;;;;;;;5.85;5.28;;;21.00;78.20;;;;;;5064779;28;20275;-72
2021/08/25 06:25:08;;;;;;;7.30;6.53;;;21.00;78.40;;;;;;5069114;28;20641;-72
2021/08/25 06:27:34;;;;;;;7.20;5.97;;;21.00;78.50;;;;;;5069799;28;20182;-72
2021/08/25 06:30:00;;;;;;;6.68;5.53;;;21.10;78.40;;;;;;5072531;28;20253;-72
2021/08/25 06:32:25;;;;;;;8.07;6.32;;;21.20;78.60;;;;;;5069047;28;20175;-74
2021/08/25 06:34:51;;;;;;;6.88;5.70;;;21.20;78.90;;;;;;5067889;28;20727;-72
2021/08/25 06:37:17;;;;;;;8.85;6.32;;;21.30;78.80;;;;;;5063910;28;20181;-72
2021/08/25 06:39:43;;;;;;;7.97;6.47;;;21.40;78.10;;;;;;5063430;28;20195;-74
2021/08/25 06:42:09;;;;;;;16.50;8.05;;;21.50;78.00;;;;;;5065627;28;20239;-74
2021/08/25 06:44:34;;;;;;;9.25;7.15;;;21.60;78.10;;;;;;5072535;28;20180;-74
2021/08/25 06:47:00;;;;;;;10.00;7.07;;;21.70;78.10;;;;;;5071764;28;20753;-73
2021/08/25 06:49:26;;;;;;;8.98;7.05;;;21.70;78.10;;;;;;5070429;28;20999;-73
2021/08/25 06:51:51;;;;;;;7.97;6.82;;;21.90;78.10;;;;;;5061259;28;20186;-73
2021/08/25 06:54:17;;;;;;;10.68;7.70;;;22.00;78.10;;;;;;5070641;28;20241;-74
2021/08/25 06:56:43;;;;;;;13.40;7.10;;;22.10;77.70;;;;;;5069490;28;20187;-73
2021/08/25 06:59:09;;;;;;;12.73;7.88;;;22.20;77.70;;;;;;5071395;28;20708;-73
2021/08/25 07:01:35;;;;;;;9.65;7.85;;;22.30;77.70;;;;;;5059399;28;20283;-73
2021/08/25 07:04:00;;;;;;;12.90;7.70;;;22.40;77.50;;;;;;5061722;28;20187;-73
2021/08/25 07:06:26;;;;;;;11.27;7.95;;;22.60;77.60;;;;;;5065779;28;20193;-72
2021/08/25 07:08:52;;;;;;;14.00;7.43;;;22.70;77.30;;;;;;5062339;28;20185;-73
2021/08/25 07:11:18;;;;;;;11.13;7.80;;;22.90;77.20;;;;;;5058030;28;20267;-73
2021/08/25 07:13:43;;;;;;;12.63;8.70;;;23.00;76.40;;;;;;5064285;28;20206;-73
2021/08/25 07:16:14;;;;;;;10.80;8.05;;;23.10;76.40;;;;;;5061560;28;20743;-73
2021/08/25 07:18:43;;;;;;;10.20;7.90;;;23.10;76.10;;;;;;5068592;28;20715;-73
2021/08/25 07:21:10;;;;;;;9.40;7.25;;;23.20;76.00;;;;;;5066961;28;20210;-73
2021/08/25 07:23:36;;;;;;;9.95;8.07;;;23.30;75.90;;;;;;5062197;28;20197;-73
2021/08/25 07:26:01;;;;;;;13.70;7.32;;;23.40;77.50;;;;;;5059260;28;20183;-73
2021/08/25 07:28:27;;;;;;;10.00;7.72;;;23.40;76.30;;;;;;5064509;28;20175;-74
2021/08/25 07:30:53;;;;;;;13.38;8.13;;;23.50;75.80;;;;;;5063675;28;20774;-73
2021/08/25 07:33:20;;;;;;;13.50;8.43;;;23.50;75.70;;;;;;5067867;28;20227;-73
2021/08/25 07:35:48;;;;;;;11.60;7.90;;;23.60;75.30;;;;;;5067697;28;20181;-75
2021/08/25 07:38:14;;;;;;;10.15;7.97;;;23.70;75.20;;;;;;5067670;28;20179;-76
2021/08/25 07:40:40;;;;;;;8.70;7.45;;;23.80;75.10;;;;;;5063978;28;20211;-77
2021/08/25 07:43:06;;;;;;;10.05;6.97;;;23.80;75.00;;;;;;5067712;28;20187;-77
2021/08/25 07:45:34;;;;;;;8.73;7.60;;;23.90;75.00;;;;;;5057401;28;20669;-76
2021/08/25 07:48:00;;;;;;;10.25;8.10;;;24.00;74.90;;;;;;5060372;28;20846;-75
2021/08/25 07:50:25;;;;;;;10.07;8.23;;;24.10;74.80;;;;;;5070016;28;20322;-74
2021/08/25 07:52:51;;;;;;;10.93;7.95;;;24.20;74.90;;;;;;5064222;28;20211;-74
2021/08/25 07:55:17;;;;;;;9.85;8.63;;;24.30;74.30;;;;;;5070411;28;20178;-74
2021/08/25 07:57:42;;;;;;;10.88;7.75;;;24.40;74.20;;;;;;5071574;28;20183;-74
2021/08/25 08:00:09;;;;;;;13.90;8.60;;;24.40;73.80;;;;;;5072974;28;20205;-73
2021/08/25 08:02:35;;;;;;;12.70;8.80;;;24.60;73.80;;;;;;5077145;28;20359;-73
2021/08/25 08:05:01;;;;;;;12.63;8.90;;;24.70;73.90;;;;;;5075633;28;20264;-73
2021/08/25 08:07:27;;;;;;;11.90;8.52;;;24.80;73.20;;;;;;5072281;28;20947;-73
2021/08/25 08:09:52;;;;;;;16.25;9.13;;;24.90;72.30;;;;;;5079269;28;20253;-73
2021/08/25 08:12:18;;;;;;;12.85;8.77;;;24.90;71.70;;;;;;5076226;28;20191;-74
2021/08/25 08:14:44;;;;;;;13.15;9.48;;;25.00;72.30;;;;;;5077308;28;20245;-73
2021/08/25 08:17:09;;;;;;;9.65;8.20;;;25.00;71.40;;;;;;5068231;28;20182;-73
2021/08/25 08:19:35;;;;;;;11.20;8.30;;;25.00;71.60;;;;;;5077950;28;20248;-73
2021/08/25 08:22:03;;;;;;;9.57;8.43;;;25.10;71.40;;;;;;5078398;28;20210;-72
2021/08/25 08:24:30;;;;;;;22.10;9.48;;;25.20;71.40;;;;;;5069763;28;20179;-73
2021/08/25 08:26:58;;;;;;;9.95;7.70;;;25.30;70.60;;;;;;5070286;28;20175;-73
2021/08/25 08:29:25;;;;;;;10.98;8.70;;;25.50;70.70;;;;;;5070104;28;20232;-74
2021/08/25 08:31:50;;;;;;;9.65;8.27;;;25.70;70.80;;;;;;5073185;28;20187;-73
2021/08/25 08:34:16;;;;;;;18.90;8.98;;;25.90;70.40;;;;;;5076711;28;20182;-74
2021/08/25 08:36:42;;;;;;;11.82;8.45;;;26.10;69.90;;;;;;5078470;28;20189;-74
2021/08/25 08:39:08;;;;;;;8.70;7.70;;;26.20;69.40;;;;;;5075591;28;20179;-74
2021/08/25 08:41:33;;;;;;;11.88;9.20;;;26.30;69.50;;;;;;5071890;28;20604;-74
2021/08/25 08:43:59;;;;;;;12.27;8.70;;;26.50;68.30;;;;;;5076669;28;20179;-74
2021/08/25 08:46:25;;;;;;;9.10;7.82;;;26.70;68.10;;;;;;5067871;28;20186;-74
2021/08/25 08:48:52;;;;;;;11.77;8.77;;;26.90;68.10;;;;;;5070781;28;20171;-73
2021/08/25 08:51:20;;;;;;;10.55;7.90;;;27.10;67.90;;;;;;5074572;28;20193;-73
2021/08/25 08:53:47;;;;;;;10.27;8.88;;;27.20;67.30;;;;;;5075404;28;20167;-73
2021/08/25 08:56:13;;;;;;;9.40;8.40;;;27.20;67.00;;;;;;5075822;28;20185;-73
2021/08/25 08:58:40;;;;;;;9.35;8.27;;;27.20;66.80;;;;;;5071677;28;20175;-73
2021/08/25 09:01:06;;;;;;;10.43;7.50;;;27.10;66.90;;;;;;5071129;28;20331;-75
2021/08/25 09:03:35;;;;;;;12.48;8.70;;;27.10;67.20;;;;;;5076948;28;20182;-74
2021/08/25 09:06:02;;;;;;;10.43;8.20;;;27.00;67.20;;;;;;5070334;28;20185;-74
2021/08/25 09:08:33;;;;;;;9.50;8.00;;;27.00;67.30;;;;;;5072888;28;20210;-74
2021/08/25 09:11:19;;;;;;;12.32;8.05;;;27.00;67.40;;;;;;5069482;28;20176;-74
2021/08/25 09:13:51;;;;;;;7.95;7.13;;;27.20;68.00;;;;;;5070810;28;20190;-74
2021/08/25 09:16:34;;;;;;;12.65;8.20;;;27.50;67.10;;;;;;5072409;28;20231;-74
2021/08/25 09:19:08;;;;;;;7.97;7.25;;;27.90;66.40;;;;;;5069412;28;20665;-74
2021/08/25 09:22:00;;;;;;;14.27;8.07;;;28.60;65.00;;;;;;5063240;28;20210;-74
2021/08/25 09:24:38;;;;;;;8.10;7.32;;;29.20;64.80;;;;;;5062684;28;20179;-74
2021/08/25 09:27:07;;;;;;;8.18;7.07;;;30.10;63.00;;;;;;5067598;28;20179;-74
2021/08/25 09:29:36;;;;;;;7.65;6.95;;;30.80;62.00;;;;;;5068398;28;20214;-73
2021/08/25 09:32:02;;;;;;;8.10;7.40;;;31.50;60.60;;;;;;5068034;28;20743;-75
2021/08/25 09:34:30;;;;;;;10.90;8.02;;;32.00;59.40;;;;;;5068944;28;20207;-76
2021/08/25 09:37:09;;;;;;;8.40;7.47;;;32.10;58.60;;;;;;5074376;28;20191;-74
2021/08/25 09:39:50;;;;;;;8.13;7.53;;;31.80;58.60;;;;;;5074041;28;20272;-74
2021/08/25 09:42:19;;;;;;;8.90;7.78;;;31.60;58.70;;;;;;5065412;28;20212;-75
2021/08/25 09:44:46;;;;;;;8.27;7.50;;;31.20;59.20;;;;;;5071767;28;20190;-74
2021/08/25 09:47:12;;;;;;;10.88;8.20;;;31.10;59.70;;;;;;5069565;28;20850;-74
2021/08/25 09:49:38;;;;;;;8.07;7.30;;;31.30;59.50;;;;;;5068147;28;20175;-73
2021/08/25 09:52:05;;;;;;;8.43;7.50;;;31.20;59.30;;;;;;5073619;28;20704;-73
2021/08/25 09:54:32;;;;;;;7.63;7.03;;;31.10;59.40;;;;;;5069919;28;20516;-73
2021/08/25 09:56:57;;;;;;;9.52;7.15;;;30.90;59.50;;;;;;5069243;28;20194;-73
2021/08/25 09:59:24;;;;;;;7.97;7.43;;;30.60;59.80;;;;;;5071277;28;20175;-73
2021/08/25 10:01:51;;;;;;;8.48;7.10;;;30.30;60.20;;;;;;5075715;28;20222;-73
2021/08/25 10:04:17;;;;;;;9.13;7.28;;;30.00;60.70;;;;;;5069252;28;20178;-73
2021/08/25 10:06:52;;;;;;;8.50;6.82;;;29.60;61.10;;;;;;5074088;28;20182;-73
2021/08/25 10:09:18;;;;;;;8.30;7.60;;;29.30;61.90;;;;;;5071687;28;20337;-73
2021/08/25 10:11:57;;;;;;;11.65;6.88;;;29.00;62.60;;;;;;5064558;28;20887;-73
2021/08/25 10:14:23;;;;;;;8.27;7.43;;;28.70;63.10;;;;;;5061596;28;20683;-72
2021/08/25 10:16:51;;;;;;;7.45;6.68;;;28.40;64.40;;;;;;5067696;28;20187;-73
2021/08/25 10:19:31;;;;;;;9.00;7.30;;;28.40;64.10;;;;;;5066052;28;20237;-73
2021/08/25 10:21:58;;;;;;;13.57;8.07;;;28.10;65.90;;;;;;5070118;28;20279;-75
2021/08/25 10:24:24;;;;;;;9.68;7.57;;;27.90;68.60;;;;;;5068466;28;20576;-75
2021/08/25 10:26:58;;;;;;;7.97;7.25;;;27.70;70.00;;;;;;5071136;28;20207;-74
2021/08/25 10:29:24;;;;;;;10.38;7.63;;;27.50;69.00;;;;;;5070202;28;20194;-73
2021/08/25 10:31:51;;;;;;;9.73;7.18;;;27.30;69.40;;;;;;5068332;28;20248;-74
2021/08/25 10:34:25;;;;;;;10.45;7.47;;;27.20;70.20;;;;;;5072843;28;20600;-74
2021/08/25 10:37:11;;;;;;;9.15;6.60;;;27.60;70.90;;;;;;5067968;28;20205;-74
2021/08/25 10:39:38;;;;;;;10.15;7.97;;;28.50;72.20;;;;;;5003743;28;20196;-75
2021/08/25 10:42:05;;;;;;;16.13;7.47;;;29.70;68.30;;;;;;5010419;28;20220;-74
2021/08/25 10:44:46;;;;;;;8.30;7.60;;;30.80;65.60;;;;;;5009073;28;20193;-75
2021/08/25 10:47:14;;;;;;;9.38;7.63;;;32.40;62.90;;;;;;5007248;28;20185;-75
2021/08/25 10:49:41;;;;;;;8.73;7.88;;;32.40;62.60;;;;;;5009337;28;20204;-74
2021/08/25 10:52:16;;;;;;;7.85;7.05;;;33.10;60.50;;;;;;5013378;28;20207;-75
2021/08/25 10:54:44;;;;;;;8.15;7.45;;;33.70;58.70;;;;;;5011146;28;20194;-74
2021/08/25 10:57:12;;;;;;;9.07;8.00;;;34.40;58.30;;;;;;5009350;28;20622;-74
2021/08/25 10:59:38;;;;;;;10.13;7.13;;;35.20;58.20;;;;;;5009287;28;20679;-72
2021/08/25 11:02:03;;;;;;;8.32;7.53;;;36.00;56.60;;;;;;5011724;28;20858;-72
2021/08/25 11:04:30;;;;;;;12.30;7.53;;;36.60;56.60;;;;;;5011595;28;20238;-75
2021/08/25 11:07:08;;;;;;;8.55;7.75;;;37.20;54.60;;;;;;5007776;28;20263;-76
2021/08/25 11:09:48;;;;;;;8.55;7.80;;;37.80;55.10;;;;;;4989224;28;20255;-76
2021/08/25 11:12:18;;;;;;;8.95;8.15;;;38.30;53.10;;;;;;5008823;28;20187;-77
2021/08/25 11:14:45;;;;;;;9.00;8.18;;;;;;;;;;5014585;28;20207;-77
2021/08/25 11:17:23;;;;;;;8.52;7.85;;;38.00;52.10;;;;;;5055158;28;20186;-76
2021/08/25 11:19:52;;;;;;;9.98;8.10;;;37.10;50.80;;;;;;5079855;28;20194;-75
2021/08/25 11:22:31;;;;;;;8.85;8.02;;;36.10;53.00;;;;;;5072477;28;20264;-74
2021/08/25 11:25:06;;;;;;;7.78;7.10;;;35.60;54.50;;;;;;5082120;28;20181;-75
2021/08/25 11:27:52;;;;;;;8.30;7.55;;;35.50;54.60;;;;;;5081779;28;20205;-73
2021/08/25 11:30:20;;;;;;;9.60;7.65;;;35.30;55.70;;;;;;5086132;28;20192;-75
2021/08/25 11:32:47;;;;;;;9.02;8.23;;;35.20;55.90;;;;;;5083366;28;20186;-76
2021/08/25 11:35:44;;;;;;;7.93;7.28;;;35.10;56.50;;;;;;5083955;28;20189;-75
2021/08/25 11:38:15;;;;;;;13.32;8.40;;;34.70;55.00;;;;;;5025433;28;20780;-76
2021/08/25 11:40:42;;;;;;;8.27;7.63;;;34.50;57.10;;;;;;5026921;28;20219;-75
2021/08/25 11:43:09;;;;;;;8.07;7.38;;;34.60;55.50;;;;;;5027635;28;20282;-75
2021/08/25 11:45:38;;;;;;;8.25;7.55;;;34.30;55.50;;;;;;5029242;28;20223;-75
2021/08/25 11:48:04;;;;;;;8.00;7.28;;;34.30;56.10;;;;;;5032015;28;20283;-75
2021/08/25 11:50:34;;;;;;;8.20;7.50;;;34.20;55.60;;;;;;5027892;28;20184;-74
2021/08/25 11:53:01;;;;;;;12.95;8.05;;;34.00;56.00;;;;;;5026021;28;20191;-74
2021/08/25 11:55:27;;;;;;;10.75;7.43;;;34.00;55.30;;;;;;5028844;28;20278;-75
2021/08/25 11:57:55;;;;;;;8.43;7.70;;;34.00;56.10;;;;;;5021499;28;20277;-74
2021/08/25 12:00:22;;;;;;;8.23;7.43;;;34.20;55.30;;;;;;5027059;28;20180;-75
2021/08/25 12:02:58;;;;;;;8.18;7.35;;;33.40;54.60;;;;;;5009347;28;20231;-75
2021/08/25 12:05:32;;;;;;;8.85;7.68;;;33.30;55.10;;;;;;5030853;28;20273;-75
2021/08/25 12:08:12;;;;;;;7.03;6.32;;;32.90;56.10;;;;;;5031357;28;20200;-75
2021/08/25 12:11:00;;;;;;;8.20;7.40;;;32.00;56.60;;;;;;5027435;28;20214;-75
2021/08/25 12:14:04;;;;;;;9.45;7.57;;;32.00;57.00;;;;;;5030366;28;20695;-75
2021/08/25 12:16:31;;;;;;;8.95;7.95;;;31.50;57.90;;;;;;5080224;28;20186;-75
2021/08/25 12:18:59;;;;;;;9.02;7.72;;;31.00;59.40;;;;;;5081741;28;20175;-77
2021/08/25 12:21:30;;;;;;;9.88;7.93;;;30.60;62.70;;;;;;5082398;28;20218;-75
2021/08/25 12:24:01;;;;;;;8.25;7.45;;;30.90;62.60;;;;;;5084645;28;20183;-76
2021/08/25 12:26:28;;;;;;;7.97;7.20;;;31.60;63.40;;;;;;5084827;28;20297;-75
2021/08/25 12:28:54;;;;;;;7.50;6.95;;;32.40;63.30;;;;;;5086606;28;20175;-75
2021/08/25 12:31:21;;;;;;;7.85;7.15;;;33.30;64.00;;;;;;5086998;28;20197;-75
2021/08/25 12:33:51;;;;;;;8.38;7.57;;;34.40;64.40;;;;;;5085167;28;20198;-75
2021/08/25 12:36:27;;;;;;;7.90;7.10;;;36.10;56.10;;;;;;5088253;28;20181;-76
2021/08/25 12:38:55;;;;;;;7.93;7.22;;;36.20;56.30;;;;;;5086503;28;20194;-76
2021/08/25 12:41:22;;;;;;;8.55;7.07;;;37.10;56.90;;;;;;5092731;28;21752;-76
2021/08/25 12:43:48;;;;;;;9.05;8.23;;;37.80;57.60;;;;;;5084577;28;20190;-76
2021/08/25 12:46:14;;;;;;;8.43;7.75;;;39.00;52.60;;;;;;5092242;28;20189;-76
2021/08/25 12:48:40;;;;;;;8.68;7.95;;;39.00;52.60;;;;;;5095062;28;20178;-76